Du har inga inställningar för hoppväder.nu

Hoppväder.nu

Senast uppdaterat 00:14

UTC-tid

2020-10-19 kl. 22:14


Sol och måne

Solen går upp 8:03 och går ner 18:25 (beräknade cirkatider)
Nästa fullmåne blir om 11 dagar (2020-10-31)

METAR

ESOE (Örebro)
(24 minuter sedan)
ESOE 192150Z AUTO 20003KT 9999 NCD 00/M02 Q1017=



ESOK (Karlstad)
(24 minuter sedan)
ESOK 192150Z AUTO 00000KT 9999 FEW100/// M00/M01 Q1017=



ESGR (Skövde)
(24 minuter sedan)
ESGR 192150Z AUTO 15002KT 9999 NCD M03/// Q1017=



ESSD (Borlänge)
(24 minuter sedan)
ESSD 192150Z AUTO 26006KT 9999 NCD M04/M06 Q1016=



ESOW (Västerås)
(24 minuter sedan)
ESOW 192150Z AUTO VRB01KT 9999 NCD M04/M07 Q1017=



TAF

ESOE (Örebro)
(284 minuter sedan)
ESOE 191730Z 1918/1922 25003KT CAVOK=



ESOK (Karlstad)
ESOK



ESGR (Skövde)
ESGR



ESSD (Borlänge)
ESSD



ESOW (Västerås)
ESOW





Kodnycklar till TAF och METAR






LHP

(Örebro är område se32g i Delområde 4)

Prognos är inte uppdaterad




Preliminär prognos

ÖVERSIKTLIG PROGNOS FÖR OMRÅDE se3 UTFÄRDAD 191330
GÄLLANDE DEN 20 OKTOBER 2020 MELLAN 04 OCH 16 UTC


Väderöversikt
En varmfront rör sig långsamt åt nordost.


Delområde se32


Sikt/Väder/Moln
04-08UTC: Område se32a: Sikt 5km - >8km i regnskurar. Molnbas 1500ft - >2000ft.
Område se32h,se32j,se32i: Sikt 3km - >8km i regn. Molnbas 500ft - >2000ft.
Område se32c,se32b,se32f: Sikt >8km. Molnbas >2000ft.
Område se32d,se32g,se32e: Sikt <1.5km - >8km i snöfall, snöblandat regn, regn. Molnbas 500ft - >2000ft.

08-12UTC: Område se32d,se32f: Sikt 1.5km - >8km i snöfall, snöblandat regn, regn. Molnbas 500ft - >2000ft.
Område se32a: Sikt 3km - >8km i regnskurar, regn. Molnbas 1000ft - >2000ft.
Område se32c,se32j: Sikt >8km, lokalt 5km - 8km i regn. Molnbas >2000ft, lokalt 1000ft - 1500ft.
Område se32e: Sikt <1.5km - >8km i snöfall, snöblandat regn, regn. Molnbas <500ft - >2000ft.
Område se32b,se32h,se32g,se32i: Sikt 3km - >8km i regn. Molnbas 1000ft - >2000ft.

12-16UTC: Område se32c,se32j,se32i: Sikt >8km, lokalt 3km - 5km i regn. Molnbas >2000ft, lokalt 1000ft - 1500ft.
Område se32d: Sikt <1.5km - >8km i duggregn, snöfall, snöblandat regn, regn. Molnbas <500ft - >2000ft.
Område se32b,se32h: Sikt 3km - >8km i duggregn, regn. Molnbas 500ft - >2000ft.
Område se32a,se32g,se32f,se32e: Sikt 1.5km - >8km i duggregn, snöfall, snöblandat regn, regn. Molnbas 500ft - >2000ft.


CB/TCU Moln
04-12UTC: Område se32a: TCU

04-16UTC: Område se32d,se32c,se32b,se32h,se32g,se32f,se32e,se32j,se32i: Väntas inte förekomma under perioden

12-16UTC: Område se32a: Väntas inte förekomma under perioden


Vind vid marken
04-08UTC: Område se32b: N/0-5 knop.
Område se32j: SO-S/0-9 knop, byar upp till 15 knop.
Område se32d: O/0-5 knop.
Område se32h: O-SO/0-8 knop, byar upp till 11 knop.
Område se32e: V/0-4 knop.
Område se32c,se32g: Lugnt.
Område se32i: SO/0-7 knop.
Område se32a: NV/0-16 knop, byar upp till 21 knop.

04-12UTC: Område se32f: Lugnt.

08-12UTC: Område se32c: S/1-10 knop, byar upp till 13 knop.
Område se32j: SO-S/2-13 knop, byar upp till 23 knop.
Område se32h: SO/2-13 knop, byar upp till 19 knop.
Område se32d: O-SO/2-11 knop, byar upp till 16 knop.
Område se32g,se32e: SO/1-6 knop.
Område se32b: S/0-9 knop, byar upp till 13 knop.
Område se32i: SO/2-12 knop, byar upp till 19 knop.
Område se32a: V/0-6 knop, byar upp till 11 knop.

12-16UTC: Område se32f: SO/2-7 knop.
Område se32g: SO/3-8 knop, byar upp till 16 knop.
Område se32e: O-SO/3-13 knop, byar upp till 18 knop.
Område se32h: SO-S/2-12 knop, byar upp till 17 knop.
Område se32c: SO-S/2-19 knop, byar upp till 24 knop.
Område se32j: SO-S/2-10 knop, byar upp till 20 knop.
Område se32a: S/1-16 knop, byar upp till 20 knop.
Område se32d: SO/1-14 knop, byar upp till 18 knop.
Område se32b: SO-S/2-18 knop, byar upp till 25 knop.
Område se32i: SO-S/3-12 knop, byar upp till 17 knop.




Spotting

Hur fungerar spotthjälpen och Vindkartan?

Markvind är ca 0 m/s.



Vindkartan

Senast uppdaterad 00:14




All data kommer från LFV.se